Wendover, NV (89883)

12:22 AM PDT on September 02, 2015 (GMT -0700)
Wendover | | Change Station
CLOSE
Current Station
Airport
Location: Wendover,
Elevation: 4239 ft
Nearby Weather Stations
Active Advisory: Fire Weather Warning

Elev 4239 ft 40.72 °N, 114.03 °W | Updated 7 minutes ago

Clear
Clear
81 °F
Feels Like 81 °F
N
20
Wind Variable Wind from SW
Gusts 24 mph

Today
High -- | Low -- °F
--% Chance of Precip.
Yesterday
High -- | Low -- °F
Precip. -- in
6:03 AM 7:06 PM
Waning Gibbous, 82% visible
Pressure 29.89 in
Visibility 10.0 miles
Clouds Clear
Dew Point 25 °F
Humidity 13%
Rainfall 0.00 in
Snow Depth Not available.
UV 0 out of 12
Pollen 9.70 out of 12
Air Quality Not available.
Flu Activity Not available.
METAR KENV 020715Z AUTO 22017G21KT 10SM CLR 27/M04 A2989 RMK AO1
Pressure 29.89 in
Visibility 10.0 miles
Clouds Clear
Dew Point 25 °F
Humidity 13%
Rainfall 0.00 in
Snow Depth Not available.
UV 0 out of 12
Pollen 9.70 out of 12
Air Quality Not available.
Flu Activity Not available.
METAR KENV 020715Z AUTO 22017G21KT 10SM CLR 27/M04 A2989 RMK AO1

10-Day Weather Forecast

×

Almanac

Astronomy

Sep. 02, 2015 Rise Set
Actual Time
Civil Twilight
Nautical Twilight
Astronomical Twilight
Moon
Length of Visible Light
Length of Day
Tomorrow will be .
, % of the Moon is Illuminated

Today's Extremes

State Highs State Lows

Community

WunderPhotos

Upload Photos

1,851,721 photos uploaded!

WunderBlogs® & News

Nearby

Air Quality

  Air Quality AQ Index Pollutant
Not available.

Snow Depth

Station Depth Elevation

Earthquake Activity

City Distance Mag. Time & Date
Minimum magnitude displayed is 2.5.

Coastal Water Temperatures

Place Temperature

Stations

Nearby Weather Stations

Station Location Temp. Windchill Dew Point Humidity Wind Precip. Elev Updated Type
                   
Fire Weather Warning
Statement as of 10:15 AM PDT on September 01, 2015

... Red flag warning in effect from 11 am to 8 PM PDT Wednesday
for gusty winds and low relative humidity for fire weather zones
469 and 470...

The National Weather Service in Elko has issued a red flag
warning for gusty winds and low relative humidity... which is in
effect from 11 am to 8 PM PDT Wednesday.

* Affected area... fire weather zone 469 southwestern and central
Elko County and fire weather zone 470 eastern Elko County.

* Winds... southwest 15 to 25 mph with gusts up to 35 mph.

* Relative humidity... as low as 9 percent.

* Impacts... the combination of gusty winds and low humidity will
create critical fire weather conditions.

Precautionary/preparedness actions...

A red flag warning means that critical fire weather conditions
are either occurring now... or will shortly. A combination of
strong winds... low relative humidity... and warm temperatures can
contribute to extreme fire behavior.